sensor_id;sensor_type;location;lat;lon;timestamp;pressure;altitude;pressure_sealevel;temperature;humidity
63552;BME280;49698;48.072;7.800;2023-03-24T00:00:36;98506.81;;;12.60;79.67
63552;BME280;49698;48.072;7.800;2023-03-24T00:03:03;98510.13;;;12.57;79.69
63552;BME280;49698;48.072;7.800;2023-03-24T00:05:32;98506.97;;;12.55;79.77
63552;BME280;49698;48.072;7.800;2023-03-24T00:07:59;98509.97;;;12.54;79.73
63552;BME280;49698;48.072;7.800;2023-03-24T00:10:28;98509.03;;;12.49;79.88
63552;BME280;49698;48.072;7.800;2023-03-24T00:13:00;98502.22;;;12.43;79.85
63552;BME280;49698;48.072;7.800;2023-03-24T00:15:28;98508.25;;;12.40;80.01
63552;BME280;49698;48.072;7.800;2023-03-24T00:17:57;98495.41;;;12.37;80.21
63552;BME280;49698;48.072;7.800;2023-03-24T00:20:26;98488.44;;;12.36;80.07
63552;BME280;49698;48.072;7.800;2023-03-24T00:22:55;98492.25;;;12.35;80.14
63552;BME280;49698;48.072;7.800;2023-03-24T00:25:26;98491.91;;;12.37;80.12
63552;BME280;49698;48.072;7.800;2023-03-24T00:27:55;98486.84;;;12.35;80.15
63552;BME280;49698;48.072;7.800;2023-03-24T00:30:24;98495.22;;;12.34;80.27
63552;BME280;49698;48.072;7.800;2023-03-24T00:32:52;98488.25;;;12.33;80.14
63552;BME280;49698;48.072;7.800;2023-03-24T00:35:22;98486.81;;;12.27;80.47
63552;BME280;49698;48.072;7.800;2023-03-24T00:37:50;98490.97;;;12.24;80.36
63552;BME280;49698;48.072;7.800;2023-03-24T00:40:19;98487.31;;;12.20;80.73
63552;BME280;49698;48.072;7.800;2023-03-24T00:42:48;98482.22;;;12.18;80.78
63552;BME280;49698;48.072;7.800;2023-03-24T00:45:18;98485.41;;;12.20;80.88
63552;BME280;49698;48.072;7.800;2023-03-24T00:47:48;98490.16;;;12.23;80.93
63552;BME280;49698;48.072;7.800;2023-03-24T00:50:22;98487.59;;;12.27;80.49
63552;BME280;49698;48.072;7.800;2023-03-24T00:52:53;98487.31;;;12.29;80.52
63552;BME280;49698;48.072;7.800;2023-03-24T00:55:21;98475.41;;;12.30;80.68
63552;BME280;49698;48.072;7.800;2023-03-24T00:57:49;98478.13;;;12.30;80.68
63552;BME280;49698;48.072;7.800;2023-03-24T01:00:19;98471.16;;;12.29;80.65
63552;BME280;49698;48.072;7.800;2023-03-24T01:02:52;98470.97;;;12.25;80.92
63552;BME280;49698;48.072;7.800;2023-03-24T01:05:25;98476.69;;;12.23;81.17
63552;BME280;49698;48.072;7.800;2023-03-24T01:07:55;98466.53;;;12.20;81.24
63552;BME280;49698;48.072;7.800;2023-03-24T01:10:24;98466.06;;;12.18;81.29
63552;BME280;49698;48.072;7.800;2023-03-24T01:12:55;98464.81;;;12.16;81.59
63552;BME280;49698;48.072;7.800;2023-03-24T01:15:26;98464.31;;;12.14;81.53
63552;BME280;49698;48.072;7.800;2023-03-24T01:17:56;98467.63;;;12.11;81.36
63552;BME280;49698;48.072;7.800;2023-03-24T01:20:25;98457.97;;;12.10;81.72
63552;BME280;49698;48.072;7.800;2023-03-24T01:22:53;98453.22;;;12.07;81.64
63552;BME280;49698;48.072;7.800;2023-03-24T01:25:22;98455.91;;;12.07;81.59
63552;BME280;49698;48.072;7.800;2023-03-24T01:27:51;98443.56;;;12.06;81.56
63552;BME280;49698;48.072;7.800;2023-03-24T01:30:22;98445.13;;;12.07;81.72
63552;BME280;49698;48.072;7.800;2023-03-24T01:32:51;98441.81;;;12.10;81.75
63552;BME280;49698;48.072;7.800;2023-03-24T01:35:20;98439.56;;;12.12;81.34
63552;BME280;49698;48.072;7.800;2023-03-24T01:37:50;98437.38;;;12.14;81.34
63552;BME280;49698;48.072;7.800;2023-03-24T01:40:21;98430.56;;;12.16;81.03
63552;BME280;49698;48.072;7.800;2023-03-24T01:42:49;98425.97;;;12.17;81.09
63552;BME280;49698;48.072;7.800;2023-03-24T01:48:21;98427.56;;;12.18;80.77
63552;BME280;49698;48.072;7.800;2023-03-24T01:50:53;98428.97;;;12.15;81.09
63552;BME280;49698;48.072;7.800;2023-03-24T01:53:24;98421.22;;;12.14;80.77
63552;BME280;49698;48.072;7.800;2023-03-24T01:55:53;98417.72;;;12.13;81.07
63552;BME280;49698;48.072;7.800;2023-03-24T01:58:29;98420.72;;;12.12;81.16
63552;BME280;49698;48.072;7.800;2023-03-24T02:01:25;98425.81;;;12.13;81.14
63552;BME280;49698;48.072;7.800;2023-03-24T02:04:05;98417.41;;;12.15;81.22
63552;BME280;49698;48.072;7.800;2023-03-24T02:06:36;98404.72;;;12.15;80.86
63552;BME280;49698;48.072;7.800;2023-03-24T02:09:09;98399.81;;;12.17;81.01
63552;BME280;49698;48.072;7.800;2023-03-24T02:11:39;98396.81;;;12.19;80.89
63552;BME280;49698;48.072;7.800;2023-03-24T02:14:08;98402.97;;;12.19;80.77
63552;BME280;49698;48.072;7.800;2023-03-24T02:17:00;98409.66;;;12.22;80.63
63552;BME280;49698;48.072;7.800;2023-03-24T02:19:50;98405.53;;;12.24;80.92
63552;BME280;49698;48.072;7.800;2023-03-24T02:22:44;98407.09;;;12.26;80.65
63552;BME280;49698;48.072;7.800;2023-03-24T02:25:46;98399.50;;;12.28;80.58
63552;BME280;49698;48.072;7.800;2023-03-24T02:28:28;98400.59;;;12.27;80.64
63552;BME280;49698;48.072;7.800;2023-03-24T02:31:19;98415.69;;;12.28;80.61
63552;BME280;49698;48.072;7.800;2023-03-24T02:34:11;98407.91;;;12.26;80.76
63552;BME280;49698;48.072;7.800;2023-03-24T02:43:53;98409.97;;;12.20;80.85
63552;BME280;49698;48.072;7.800;2023-03-24T02:46:28;98407.28;;;12.20;80.92
63552;BME280;49698;48.072;7.800;2023-03-24T02:49:08;98419.97;;;12.20;81.07
63552;BME280;49698;48.072;7.800;2023-03-24T02:51:45;98418.50;;;12.22;80.81
63552;BME280;49698;48.072;7.800;2023-03-24T02:54:21;98407.91;;;12.26;80.85
63552;BME280;49698;48.072;7.800;2023-03-24T02:56:56;98397.91;;;12.27;80.56
63552;BME280;49698;48.072;7.800;2023-03-24T02:59:54;98404.09;;;12.27;80.50
63552;BME280;49698;48.072;7.800;2023-03-24T03:02:56;98406.16;;;12.30;80.49
63552;BME280;49698;48.072;7.800;2023-03-24T03:05:28;98392.69;;;12.30;80.73
63552;BME280;49698;48.072;7.800;2023-03-24T03:08:00;98399.19;;;12.29;80.81
63552;BME280;49698;48.072;7.800;2023-03-24T03:10:30;98391.56;;;12.31;80.61
63552;BME280;49698;48.072;7.800;2023-03-24T03:13:04;98380.78;;;12.31;80.71
63552;BME280;49698;48.072;7.800;2023-03-24T03:15:38;98371.13;;;12.30;80.67
63552;BME280;49698;48.072;7.800;2023-03-24T03:18:12;98371.13;;;12.30;80.87
63552;BME280;49698;48.072;7.800;2023-03-24T03:20:43;98364.16;;;12.29;80.88
63552;BME280;49698;48.072;7.800;2023-03-24T03:23:18;98365.72;;;12.30;80.85
63552;BME280;49698;48.072;7.800;2023-03-24T03:25:51;98372.69;;;12.31;80.69
63552;BME280;49698;48.072;7.800;2023-03-24T03:28:26;98382.06;;;12.34;80.67
63552;BME280;49698;48.072;7.800;2023-03-24T03:30:58;98383.34;;;12.36;80.60
63552;BME280;49698;48.072;7.800;2023-03-24T03:33:34;98390.78;;;12.39;80.64
63552;BME280;49698;48.072;7.800;2023-03-24T03:36:07;98385.84;;;12.41;80.46
63552;BME280;49698;48.072;7.800;2023-03-24T03:38:43;98380.16;;;12.43;80.32
63552;BME280;49698;48.072;7.800;2023-03-24T03:41:14;98383.94;;;12.42;80.36
63552;BME280;49698;48.072;7.800;2023-03-24T03:43:46;98412.81;;;12.41;80.52
63552;BME280;49698;48.072;7.800;2023-03-24T03:46:17;98408.03;;;12.38;80.47
63552;BME280;49698;48.072;7.800;2023-03-24T03:48:47;98424.22;;;12.38;80.68
63552;BME280;49698;48.072;7.800;2023-03-24T03:51:15;98449.25;;;12.39;80.60
63552;BME280;49698;48.072;7.800;2023-03-24T03:53:52;98444.19;;;12.46;79.93
63552;BME280;49698;48.072;7.800;2023-03-24T03:56:23;98454.63;;;12.65;78.57
63552;BME280;49698;48.072;7.800;2023-03-24T03:59:21;98459.84;;;12.87;76.90
63552;BME280;49698;48.072;7.800;2023-03-24T04:01:51;98469.44;;;13.14;75.07
63552;BME280;49698;48.072;7.800;2023-03-24T04:04:54;98477.41;;;13.58;72.48
63552;BME280;49698;48.072;7.800;2023-03-24T04:07:53;98503.09;;;14.02;69.57
63552;BME280;49698;48.072;7.800;2023-03-24T04:11:33;98511.34;;;14.48;67.86
63552;BME280;49698;48.072;7.800;2023-03-24T04:14:46;98521.16;;;14.61;68.23
63552;BME280;49698;48.072;7.800;2023-03-24T04:17:37;98533.41;;;14.58;69.16
63552;BME280;49698;48.072;7.800;2023-03-24T04:20:10;98535.69;;;14.48;70.46
63552;BME280;49698;48.072;7.800;2023-03-24T04:22:55;98542.59;;;14.36;71.53
63552;BME280;49698;48.072;7.800;2023-03-24T04:25:31;98548.53;;;14.30;72.17
63552;BME280;49698;48.072;7.800;2023-03-24T04:28:08;98545.56;;;14.23;72.88
63552;BME280;49698;48.072;7.800;2023-03-24T04:30:42;98543.06;;;14.17;73.47
63552;BME280;49698;48.072;7.800;2023-03-24T04:33:21;98546.06;;;14.16;73.50
63552;BME280;49698;48.072;7.800;2023-03-24T04:35:54;98544.50;;;14.15;73.92
63552;BME280;49698;48.072;7.800;2023-03-24T04:38:36;98536.59;;;14.10;74.65
63552;BME280;49698;48.072;7.800;2023-03-24T04:41:28;98553.63;;;14.02;75.26
63552;BME280;49698;48.072;7.800;2023-03-24T04:44:09;98549.84;;;13.94;75.80
63552;BME280;49698;48.072;7.800;2023-03-24T04:46:56;98557.81;;;13.90;76.38
63552;BME280;49698;48.072;7.800;2023-03-24T04:49:27;98552.56;;;13.85;76.93
63552;BME280;49698;48.072;7.800;2023-03-24T04:51:55;98562.00;;;13.79;77.58
63552;BME280;49698;48.072;7.800;2023-03-24T04:54:25;98556.75;;;13.74;78.03
63552;BME280;49698;48.072;7.800;2023-03-24T04:57:01;98562.81;;;13.71;78.42
63552;BME280;49698;48.072;7.800;2023-03-24T04:59:32;98560.44;;;13.69;78.55
63552;BME280;49698;48.072;7.800;2023-03-24T05:02:03;98549.19;;;13.67;78.59
63552;BME280;49698;48.072;7.800;2023-03-24T05:04:43;98551.09;;;13.67;78.64
63552;BME280;49698;48.072;7.800;2023-03-24T05:07:18;98556.50;;;13.67;78.44
63552;BME280;49698;48.072;7.800;2023-03-24T05:09:51;98558.06;;;13.68;78.60
63552;BME280;49698;48.072;7.800;2023-03-24T05:12:22;98556.50;;;13.67;78.87
63552;BME280;49698;48.072;7.800;2023-03-24T05:15:09;98555.22;;;13.64;78.78
63552;BME280;49698;48.072;7.800;2023-03-24T05:17:38;98550.94;;;13.63;78.86
63552;BME280;49698;48.072;7.800;2023-03-24T05:20:08;98541.56;;;13.61;78.98
63552;BME280;49698;48.072;7.800;2023-03-24T05:22:40;98538.38;;;13.59;79.09
63552;BME280;49698;48.072;7.800;2023-03-24T05:25:08;98542.22;;;13.58;79.24
63552;BME280;49698;48.072;7.800;2023-03-24T05:27:37;98545.25;;;13.56;79.35
63552;BME280;49698;48.072;7.800;2023-03-24T05:30:16;98549.06;;;13.55;79.23
63552;BME280;49698;48.072;7.800;2023-03-24T05:32:47;98552.84;;;13.54;79.59
63552;BME280;49698;48.072;7.800;2023-03-24T05:35:16;98542.38;;;13.53;79.60
63552;BME280;49698;48.072;7.800;2023-03-24T05:37:44;98541.91;;;13.51;79.89
63552;BME280;49698;48.072;7.800;2023-03-24T05:40:12;98540.34;;;13.50;80.00
63552;BME280;49698;48.072;7.800;2023-03-24T05:42:51;98544.47;;;13.47;80.21
63552;BME280;49698;48.072;7.800;2023-03-24T05:45:21;98544.78;;;13.45;80.18
63552;BME280;49698;48.072;7.800;2023-03-24T05:47:50;98550.19;;;13.45;80.29
63552;BME280;49698;48.072;7.800;2023-03-24T05:50:27;98549.41;;;13.45;80.27
63552;BME280;49698;48.072;7.800;2023-03-24T05:52:55;98550.97;;;13.46;80.39
63552;BME280;49698;48.072;7.800;2023-03-24T05:55:36;98562.13;;;13.44;80.48
63552;BME280;49698;48.072;7.800;2023-03-24T05:58:19;98563.22;;;13.43;80.79
63552;BME280;49698;48.072;7.800;2023-03-24T06:00:49;98567.03;;;13.42;80.83
63552;BME280;49698;48.072;7.800;2023-03-24T06:03:29;98566.25;;;13.42;80.89
63552;BME280;49698;48.072;7.800;2023-03-24T06:06:07;98570.84;;;13.41;81.09
63552;BME280;49698;48.072;7.800;2023-03-24T06:08:40;98569.28;;;13.40;81.25
63552;BME280;49698;48.072;7.800;2023-03-24T06:11:11;98576.88;;;13.38;81.39
63552;BME280;49698;48.072;7.800;2023-03-24T06:13:48;98581.34;;;13.34;81.85
63552;BME280;49698;48.072;7.800;2023-03-24T06:16:16;98588.97;;;13.32;82.12
63552;BME280;49698;48.072;7.800;2023-03-24T06:18:53;98591.19;;;13.30;82.44
63552;BME280;49698;48.072;7.800;2023-03-24T06:21:46;98593.44;;;13.28;82.70
63552;BME280;49698;48.072;7.800;2023-03-24T06:24:19;98601.03;;;13.26;82.96
63552;BME280;49698;48.072;7.800;2023-03-24T06:26:47;98599.28;;;13.21;83.33
63552;BME280;49698;48.072;7.800;2023-03-24T06:29:16;98608.78;;;13.19;83.87
63552;BME280;49698;48.072;7.800;2023-03-24T06:31:48;98606.72;;;13.16;83.89
63552;BME280;49698;48.072;7.800;2023-03-24T06:34:17;98610.53;;;13.15;84.35
63552;BME280;49698;48.072;7.800;2023-03-24T06:37:00;98611.19;;;13.12;84.56
63552;BME280;49698;48.072;7.800;2023-03-24T06:39:29;98607.38;;;13.13;84.81
63552;BME280;49698;48.072;7.800;2023-03-24T06:41:57;98612.28;;;13.11;84.98
63552;BME280;49698;48.072;7.800;2023-03-24T06:44:26;98618.81;;;13.10;85.24
63552;BME280;49698;48.072;7.800;2023-03-24T06:46:54;98614.03;;;13.07;85.59
63552;BME280;49698;48.072;7.800;2023-03-24T06:49:22;98619.44;;;13.07;85.82
63552;BME280;49698;48.072;7.800;2023-03-24T06:51:50;98621.03;;;13.08;85.90
63552;BME280;49698;48.072;7.800;2023-03-24T06:54:20;98630.72;;;13.09;85.75
63552;BME280;49698;48.072;7.800;2023-03-24T06:56:48;98640.84;;;13.12;85.88
63552;BME280;49698;48.072;7.800;2023-03-24T06:59:18;98638.94;;;13.12;86.07
63552;BME280;49698;48.072;7.800;2023-03-24T07:01:49;98650.06;;;13.11;86.06
63552;BME280;49698;48.072;7.800;2023-03-24T07:04:23;98656.25;;;13.11;86.19
63552;BME280;49698;48.072;7.800;2023-03-24T07:06:55;98662.78;;;13.10;86.39
63552;BME280;49698;48.072;7.800;2023-03-24T07:09:34;98664.69;;;13.10;86.50
63552;BME280;49698;48.072;7.800;2023-03-24T07:12:03;98677.38;;;13.09;86.44
63552;BME280;49698;48.072;7.800;2023-03-24T07:14:32;98673.88;;;13.09;86.66
63552;BME280;49698;48.072;7.800;2023-03-24T07:17:03;98672.28;;;13.08;86.77
63552;BME280;49698;48.072;7.800;2023-03-24T07:19:44;98675.16;;;13.03;87.05
63552;BME280;49698;48.072;7.800;2023-03-24T07:22:44;98686.56;;;13.00;87.55
63552;BME280;49698;48.072;7.800;2023-03-24T07:25:33;98686.88;;;12.98;87.67
63552;BME280;49698;48.072;7.800;2023-03-24T07:28:13;98687.19;;;12.96;88.00
63552;BME280;49698;48.072;7.800;2023-03-24T07:30:41;98687.50;;;12.95;88.14
63552;BME280;49698;48.072;7.800;2023-03-24T07:33:11;98685.13;;;12.93;88.45
63552;BME280;49698;48.072;7.800;2023-03-24T07:35:42;98678.13;;;12.92;88.78
63552;BME280;49698;48.072;7.800;2023-03-24T07:38:10;98664.97;;;12.91;88.89
63552;BME280;49698;48.072;7.800;2023-03-24T07:40:40;98671.16;;;12.91;89.28
63552;BME280;49698;48.072;7.800;2023-03-24T07:43:08;98661.16;;;12.92;89.50
63552;BME280;49698;48.072;7.800;2023-03-24T07:45:54;98664.66;;;12.92;89.52
63552;BME280;49698;48.072;7.800;2023-03-24T07:48:27;98660.88;;;12.93;89.55
63552;BME280;49698;48.072;7.800;2023-03-24T07:50:55;98664.03;;;12.95;89.58
63552;BME280;49698;48.072;7.800;2023-03-24T07:53:43;98664.97;;;13.00;89.39
63552;BME280;49698;48.072;7.800;2023-03-24T07:56:21;98657.06;;;13.03;89.41
63552;BME280;49698;48.072;7.800;2023-03-24T07:58:53;98671.81;;;13.06;88.92
63552;BME280;49698;48.072;7.800;2023-03-24T08:01:29;98680.38;;;13.08;88.43
63552;BME280;49698;48.072;7.800;2023-03-24T08:04:01;98688.34;;;13.13;88.17
63552;BME280;49698;48.072;7.800;2023-03-24T08:06:54;98686.88;;;13.15;87.82
63552;BME280;49698;48.072;7.800;2023-03-24T08:09:23;98689.28;;;13.17;87.88
63552;BME280;49698;48.072;7.800;2023-03-24T08:11:52;98668.00;;;13.15;87.68
63552;BME280;49698;48.072;7.800;2023-03-24T08:14:20;98652.28;;;13.17;87.65
63552;BME280;49698;48.072;7.800;2023-03-24T08:16:48;98627.69;;;13.19;87.47
63552;BME280;49698;48.072;7.800;2023-03-24T08:19:16;98607.38;;;13.21;87.39
63552;BME280;49698;48.072;7.800;2023-03-24T08:21:44;98617.88;;;13.23;86.85
63552;BME280;49698;48.072;7.800;2023-03-24T08:24:12;98613.41;;;13.27;86.40
63552;BME280;49698;48.072;7.800;2023-03-24T08:26:40;98628.34;;;13.33;85.72
63552;BME280;49698;48.072;7.800;2023-03-24T08:29:10;98646.44;;;13.41;85.47
63552;BME280;49698;48.072;7.800;2023-03-24T08:31:38;98650.69;;;13.51;84.69
63552;BME280;49698;48.072;7.800;2023-03-24T08:34:06;98653.84;;;13.62;84.14
63552;BME280;49698;48.072;7.800;2023-03-24T08:36:37;98659.38;;;13.74;83.34
63552;BME280;49698;48.072;7.800;2023-03-24T08:39:07;98662.88;;;13.83;82.53
63552;BME280;49698;48.072;7.800;2023-03-24T08:41:35;98679.38;;;13.90;81.92
63552;BME280;49698;48.072;7.800;2023-03-24T08:44:04;98692.22;;;13.93;81.45
63552;BME280;49698;48.072;7.800;2023-03-24T08:46:34;98681.91;;;13.95;80.71
63552;BME280;49698;48.072;7.800;2023-03-24T08:49:02;98686.66;;;13.99;80.19
63552;BME280;49698;48.072;7.800;2023-03-24T08:51:30;98681.88;;;14.04;79.64
63552;BME280;49698;48.072;7.800;2023-03-24T08:53:58;98673.91;;;14.08;79.53
63552;BME280;49698;48.072;7.800;2023-03-24T08:56:27;98682.50;;;14.10;79.14
63552;BME280;49698;48.072;7.800;2023-03-24T08:58:55;98699.50;;;14.10;78.83
63552;BME280;49698;48.072;7.800;2023-03-24T09:01:23;98693.31;;;14.10;78.83
63552;BME280;49698;48.072;7.800;2023-03-24T09:03:53;98695.53;;;14.08;78.63
63552;BME280;49698;48.072;7.800;2023-03-24T09:06:22;98689.78;;;14.09;78.53
63552;BME280;49698;48.072;7.800;2023-03-24T09:08:50;98699.81;;;14.09;78.37
63552;BME280;49698;48.072;7.800;2023-03-24T09:11:19;98682.03;;;14.08;78.36
63552;BME280;49698;48.072;7.800;2023-03-24T09:13:48;98684.38;;;14.09;78.43
63552;BME280;49698;48.072;7.800;2023-03-24T09:16:16;98675.50;;;14.09;78.27
63552;BME280;49698;48.072;7.800;2023-03-24T09:18:44;98692.84;;;14.08;78.25
63552;BME280;49698;48.072;7.800;2023-03-24T09:21:14;98694.91;;;14.11;78.24
63552;BME280;49698;48.072;7.800;2023-03-24T09:23:43;98698.19;;;14.16;78.21
63552;BME280;49698;48.072;7.800;2023-03-24T09:26:11;98677.34;;;14.26;78.11
63552;BME280;49698;48.072;7.800;2023-03-24T09:28:38;98688.56;;;14.36;77.74
63552;BME280;49698;48.072;7.800;2023-03-24T09:31:06;98695.72;;;14.50;77.31
63552;BME280;49698;48.072;7.800;2023-03-24T09:33:34;98704.13;;;14.57;76.77
63552;BME280;49698;48.072;7.800;2023-03-24T09:36:03;98727.81;;;14.60;76.71
63552;BME280;49698;48.072;7.800;2023-03-24T09:38:33;98732.41;;;14.59;76.69
63552;BME280;49698;48.072;7.800;2023-03-24T09:41:02;98730.03;;;14.58;76.32
63552;BME280;49698;48.072;7.800;2023-03-24T09:43:35;98723.19;;;14.60;76.41
63552;BME280;49698;48.072;7.800;2023-03-24T09:46:09;98722.66;;;14.67;76.25
63552;BME280;49698;48.072;7.800;2023-03-24T09:48:41;98724.09;;;14.73;75.83
63552;BME280;49698;48.072;7.800;2023-03-24T09:51:17;98734.06;;;14.81;75.57
63552;BME280;49698;48.072;7.800;2023-03-24T09:53:53;98730.44;;;14.77;75.44
63552;BME280;49698;48.072;7.800;2023-03-24T09:56:24;98736.03;;;14.72;75.18
63552;BME280;49698;48.072;7.800;2023-03-24T09:59:02;98752.75;;;14.65;75.13
63552;BME280;49698;48.072;7.800;2023-03-24T10:01:32;98749.31;;;14.56;75.41
63552;BME280;49698;48.072;7.800;2023-03-24T10:04:01;98733.41;;;14.46;75.26
63552;BME280;49698;48.072;7.800;2023-03-24T10:06:31;98749.03;;;14.40;75.02
63552;BME280;49698;48.072;7.800;2023-03-24T10:09:16;98749.19;;;14.35;75.09
63552;BME280;49698;48.072;7.800;2023-03-24T10:11:55;98719.16;;;14.28;75.60
63552;BME280;49698;48.072;7.800;2023-03-24T10:14:38;98698.34;;;14.20;76.02
63552;BME280;49698;48.072;7.800;2023-03-24T10:17:16;98724.78;;;14.14;76.23
63552;BME280;49698;48.072;7.800;2023-03-24T10:19:55;98789.94;;;14.13;76.60
63552;BME280;49698;48.072;7.800;2023-03-24T10:22:29;98796.00;;;14.10;76.86
63552;BME280;49698;48.072;7.800;2023-03-24T10:25:04;98809.81;;;14.08;77.21
63552;BME280;49698;48.072;7.800;2023-03-24T10:27:36;98791.56;;;14.14;77.13
63552;BME280;49698;48.072;7.800;2023-03-24T10:30:13;98792.28;;;14.40;76.55
63552;BME280;49698;48.072;7.800;2023-03-24T10:32:42;98783.59;;;14.73;75.71
63552;BME280;49698;48.072;7.800;2023-03-24T10:35:15;98808.34;;;14.92;75.13
63552;BME280;49698;48.072;7.800;2023-03-24T10:37:45;98797.69;;;14.87;75.17
63552;BME280;49698;48.072;7.800;2023-03-24T10:40:16;98791.06;;;14.76;75.23
63552;BME280;49698;48.072;7.800;2023-03-24T10:42:47;98786.00;;;14.66;75.47
63552;BME280;49698;48.072;7.800;2023-03-24T10:45:24;98789.19;;;14.68;75.06
63552;BME280;49698;48.072;7.800;2023-03-24T10:47:56;98797.75;;;14.70;75.08
63552;BME280;49698;48.072;7.800;2023-03-24T10:50:29;98791.84;;;14.77;74.65
63552;BME280;49698;48.072;7.800;2023-03-24T10:52:58;98803.28;;;14.82;74.74
63552;BME280;49698;48.072;7.800;2023-03-24T10:55:30;98774.94;;;14.88;74.52
63552;BME280;49698;48.072;7.800;2023-03-24T10:58:14;98792.28;;;14.87;74.02
63552;BME280;49698;48.072;7.800;2023-03-24T11:00:44;98801.09;;;14.76;74.29
63552;BME280;49698;48.072;7.800;2023-03-24T11:03:15;98799.88;;;14.56;74.77
63552;BME280;49698;48.072;7.800;2023-03-24T11:05:44;98790.97;;;14.47;75.15
63552;BME280;49698;48.072;7.800;2023-03-24T11:08:22;98794.31;;;14.43;75.25
63552;BME280;49698;48.072;7.800;2023-03-24T11:10:55;98781.94;;;14.42;75.05
63552;BME280;49698;48.072;7.800;2023-03-24T11:13:29;98777.50;;;14.38;74.55
63552;BME280;49698;48.072;7.800;2023-03-24T11:16:05;98781.97;;;14.34;74.45
63552;BME280;49698;48.072;7.800;2023-03-24T11:18:36;98776.69;;;14.37;74.10
63552;BME280;49698;48.072;7.800;2023-03-24T11:21:04;98776.53;;;14.42;73.63
63552;BME280;49698;48.072;7.800;2023-03-24T11:23:37;98762.19;;;14.51;73.28
63552;BME280;49698;48.072;7.800;2023-03-24T11:26:10;98752.28;;;14.63;72.72
63552;BME280;49698;48.072;7.800;2023-03-24T11:28:41;98750.28;;;14.81;72.02
63552;BME280;49698;48.072;7.800;2023-03-24T11:31:13;98770.94;;;14.95;71.46
63552;BME280;49698;48.072;7.800;2023-03-24T11:33:55;98771.31;;;15.05;70.67
63552;BME280;49698;48.072;7.800;2023-03-24T11:39:20;98775.59;;;15.15;70.30
63552;BME280;49698;48.072;7.800;2023-03-24T11:42:13;98787.94;;;15.25;69.81
63552;BME280;49698;48.072;7.800;2023-03-24T11:44:47;98775.31;;;15.29;69.78
63552;BME280;49698;48.072;7.800;2023-03-24T11:47:25;98782.84;;;15.44;69.40
63552;BME280;49698;48.072;7.800;2023-03-24T11:50:13;98796.25;;;15.70;68.71
63552;BME280;49698;48.072;7.800;2023-03-24T11:52:48;98805.47;;;15.90;68.33
63552;BME280;49698;48.072;7.800;2023-03-24T11:55:24;98801.75;;;15.95;68.13
63552;BME280;49698;48.072;7.800;2023-03-24T11:57:59;98785.84;;;15.93;68.08
63552;BME280;49698;48.072;7.800;2023-03-24T12:00:32;98791.34;;;15.84;68.24
63552;BME280;49698;48.072;7.800;2023-03-24T12:03:19;98795.72;;;15.77;68.54
63552;BME280;49698;48.072;7.800;2023-03-24T12:05:56;98796.72;;;15.63;68.88
63552;BME280;49698;48.072;7.800;2023-03-24T12:08:41;98795.41;;;15.49;69.44
63552;BME280;49698;48.072;7.800;2023-03-24T12:11:15;98797.31;;;15.27;69.96
63552;BME280;49698;48.072;7.800;2023-03-24T12:13:47;98777.53;;;15.06;70.49
63552;BME280;49698;48.072;7.800;2023-03-24T12:16:33;98763.25;;;14.97;71.02
63552;BME280;49698;48.072;7.800;2023-03-24T12:19:33;98763.78;;;14.90;71.13
63552;BME280;49698;48.072;7.800;2023-03-24T12:22:13;98761.13;;;14.81;71.50
63552;BME280;49698;48.072;7.800;2023-03-24T12:24:58;98768.78;;;14.71;71.71
63552;BME280;49698;48.072;7.800;2023-03-24T12:27:39;98761.38;;;14.59;72.00
63552;BME280;49698;48.072;7.800;2023-03-24T12:30:17;98750.75;;;14.54;72.33
63552;BME280;49698;48.072;7.800;2023-03-24T12:32:54;98762.03;;;14.47;72.30
63552;BME280;49698;48.072;7.800;2023-03-24T12:35:36;98762.03;;;14.47;72.46
63552;BME280;49698;48.072;7.800;2023-03-24T12:38:20;98772.06;;;14.47;72.47
63552;BME280;49698;48.072;7.800;2023-03-24T12:40:55;98761.22;;;14.47;72.43
63552;BME280;49698;48.072;7.800;2023-03-24T12:43:34;98754.56;;;14.44;72.27
63552;BME280;49698;48.072;7.800;2023-03-24T12:46:15;98762.03;;;14.47;72.22
63552;BME280;49698;48.072;7.800;2023-03-24T12:49:02;98777.47;;;14.47;72.16
63552;BME280;49698;48.072;7.800;2023-03-24T12:51:42;98771.75;;;14.39;72.55
63552;BME280;49698;48.072;7.800;2023-03-24T12:54:24;98791.50;;;14.31;72.30
63552;BME280;49698;48.072;7.800;2023-03-24T12:57:01;98787.88;;;14.18;72.21
63552;BME280;49698;48.072;7.800;2023-03-24T12:59:31;98796.00;;;14.10;72.52
63552;BME280;49698;48.072;7.800;2023-03-24T13:02:08;98802.69;;;14.04;72.77
63552;BME280;49698;48.072;7.800;2023-03-24T13:04:46;98785.84;;;13.98;72.84
63552;BME280;49698;48.072;7.800;2023-03-24T13:07:17;98789.81;;;13.92;72.57
63552;BME280;49698;48.072;7.800;2023-03-24T13:09:50;98768.69;;;13.85;72.46
63552;BME280;49698;48.072;7.800;2023-03-24T13:12:25;98739.63;;;13.82;72.36
63552;BME280;49698;48.072;7.800;2023-03-24T13:15:00;98745.03;;;13.82;72.13
63552;BME280;49698;48.072;7.800;2023-03-24T13:17:35;98747.41;;;13.84;71.92
63552;BME280;49698;48.072;7.800;2023-03-24T13:20:11;98752.78;;;13.92;71.58
63552;BME280;49698;48.072;7.800;2023-03-24T13:22:40;98757.72;;;13.99;71.12
63552;BME280;49698;48.072;7.800;2023-03-24T13:25:18;98770.56;;;14.11;70.58
63552;BME280;49698;48.072;7.800;2023-03-24T13:27:52;98771.63;;;14.27;69.85
63552;BME280;49698;48.072;7.800;2023-03-24T13:30:28;98756.31;;;14.49;68.97
63552;BME280;49698;48.072;7.800;2023-03-24T13:33:03;98779.66;;;14.62;68.70
63552;BME280;49698;48.072;7.800;2023-03-24T13:35:46;98774.41;;;14.65;68.10
63552;BME280;49698;48.072;7.800;2023-03-24T13:38:22;98770.41;;;14.63;68.23
63552;BME280;49698;48.072;7.800;2023-03-24T13:40:55;98776.50;;;14.60;68.14
63552;BME280;49698;48.072;7.800;2023-03-24T13:43:25;98772.66;;;14.61;68.03
63552;BME280;49698;48.072;7.800;2023-03-24T13:45:58;98779.50;;;14.58;68.16
63552;BME280;49698;48.072;7.800;2023-03-24T13:48:34;98767.59;;;14.51;67.93
63552;BME280;49698;48.072;7.800;2023-03-24T13:51:05;98779.25;;;14.34;68.10